Terminal Aerodrome Forecast
Issued by NWS

Home | Current Version | Previous Version | Text Only | Print | Product List | Glossary On
Versions: 1 2 3 4 5 6 7 8 9 10 11 12 13 14 15
000
FTUS43 KPAH 300535
TAFOWB
TAF
KOWB 300535Z 3006/0106 21004KT P6SM VCSH BKN100
     FM300800 VRB04KT P6SM SCT120
     FM301000 30006KT P6SM SCT120
     FM301900 26012G18KT P6SM SCT040
     FM010000 26007KT P6SM SCT040=

USA.gov is the U.S. government's official web portal to all federal, state and local government web resources and services.